Time;durP1;ratioP1;P1;durP2;ratioP2;P2;SDS_P1;SDS_P2;PMS_P1;PMS_P2;Temp;Humidity;BMP_temperature;BMP_pressure;BME280_temperature;BME280_humidity;BME280_pressure;Samples;Min_cycle;Max_cycle;Signal;HPM_P1;HPM_P2
2022/02/16 00:01:37;;;;;;;1.05;1.05;;;15.60;64.40;;;;;;5054186;28;20082;-27
2022/02/16 00:04:02;;;;;;;1.10;1.00;;;15.60;64.40;;;;;;5069676;28;20055;-26
2022/02/16 00:06:28;;;;;;;1.00;1.00;;;15.60;64.40;;;;;;5066468;28;20059;-26
2022/02/16 00:08:54;;;;;;;1.40;1.30;;;15.60;64.30;;;;;;5070953;28;20052;-26
2022/02/16 00:11:19;;;;;;;1.02;0.93;;;15.60;64.30;;;;;;5073230;28;20535;-27
2022/02/16 00:13:45;;;;;;;0.80;0.80;;;15.60;64.40;;;;;;5063978;28;20047;-26
2022/02/16 00:16:11;;;;;;;0.90;0.90;;;15.60;64.40;;;;;;5073370;28;20032;-26
2022/02/16 00:18:36;;;;;;;0.90;0.90;;;15.60;64.50;;;;;;5060871;28;20041;-27
2022/02/16 00:21:03;;;;;;;0.68;0.68;;;15.60;64.30;;;;;;5068007;28;20135;-26
2022/02/16 00:23:29;;;;;;;0.82;0.82;;;15.70;64.40;;;;;;5073433;28;20040;-27
2022/02/16 00:25:55;;;;;;;1.00;1.00;;;15.60;64.30;;;;;;5067577;28;20051;-26
2022/02/16 00:28:24;;;;;;;0.90;0.90;;;15.60;64.40;;;;;;5070548;28;20044;-26
2022/02/16 00:30:50;;;;;;;0.90;0.90;;;15.60;64.50;;;;;;5072530;28;20059;-26
2022/02/16 00:33:15;;;;;;;2.05;0.93;;;15.60;64.50;;;;;;5073425;28;20503;-26
2022/02/16 00:35:41;;;;;;;1.63;0.98;;;15.60;64.50;;;;;;5055464;28;20049;-26
2022/02/16 00:38:06;;;;;;;1.00;1.00;;;15.60;64.30;;;;;;5054197;28;20104;-27
2022/02/16 00:40:32;;;;;;;1.13;0.77;;;15.60;65.10;;;;;;5052620;28;20071;-26
2022/02/16 00:42:57;;;;;;;0.98;0.98;;;15.60;64.70;;;;;;5062736;28;20048;-27
2022/02/16 00:45:23;;;;;;;1.13;1.00;;;15.60;64.40;;;;;;5054282;28;20056;-28
2022/02/16 00:47:49;;;;;;;0.80;0.80;;;15.60;64.40;;;;;;5061277;28;20123;-27
2022/02/16 00:50:15;;;;;;;1.15;0.88;;;15.60;64.40;;;;;;5063646;28;20048;-26
2022/02/16 00:52:40;;;;;;;0.80;0.80;;;15.70;64.60;;;;;;5070032;28;20053;-27
2022/02/16 00:55:07;;;;;;;2.78;0.70;;;15.70;64.70;;;;;;5067886;28;20052;-26
2022/02/16 00:57:32;;;;;;;0.98;0.90;;;15.70;64.70;;;;;;5065008;28;20077;-26
2022/02/16 00:59:58;;;;;;;1.55;1.05;;;15.70;64.60;;;;;;5066260;28;20051;-26
2022/02/16 01:02:28;;;;;;;0.80;0.80;;;15.70;64.60;;;;;;5069488;28;20136;-26
2022/02/16 01:04:54;;;;;;;1.85;0.75;;;15.70;64.50;;;;;;5063736;28;20041;-27
2022/02/16 01:07:19;;;;;;;0.65;0.63;;;15.60;64.70;;;;;;5067137;28;20104;-26
2022/02/16 01:09:45;;;;;;;0.90;0.90;;;15.60;64.70;;;;;;5072422;28;20108;-26
2022/02/16 01:12:10;;;;;;;0.50;0.50;;;15.60;64.80;;;;;;5073914;28;20055;-28
2022/02/16 01:14:36;;;;;;;2.05;0.75;;;15.60;64.80;;;;;;5063217;28;20417;-27
2022/02/16 01:17:02;;;;;;;0.73;0.73;;;15.60;64.80;;;;;;5063321;28;20048;-26
2022/02/16 01:19:28;;;;;;;0.70;0.70;;;15.60;64.90;;;;;;5066232;28;20535;-26
2022/02/16 01:21:53;;;;;;;0.68;0.68;;;15.70;64.90;;;;;;5060109;28;20064;-26
2022/02/16 01:24:19;;;;;;;0.80;0.80;;;15.70;64.80;;;;;;5060698;28;20071;-26
2022/02/16 01:26:45;;;;;;;0.70;0.68;;;15.70;64.80;;;;;;5071853;28;20442;-27
2022/02/16 01:29:10;;;;;;;0.70;0.70;;;15.70;64.90;;;;;;5064090;28;20052;-27
2022/02/16 01:31:36;;;;;;;0.52;0.52;;;15.70;65.00;;;;;;5056311;28;20549;-26
2022/02/16 01:34:02;;;;;;;0.60;0.57;;;15.70;64.70;;;;;;5057105;28;20033;-27
2022/02/16 01:36:27;;;;;;;2.63;0.40;;;15.70;64.70;;;;;;5057314;28;20124;-26
2022/02/16 01:38:53;;;;;;;0.70;0.60;;;15.70;64.80;;;;;;5056671;28;20068;-26
2022/02/16 01:41:19;;;;;;;0.50;0.50;;;15.60;64.60;;;;;;5056879;28;20477;-27
2022/02/16 01:43:52;;;;;;;0.70;0.70;;;15.60;64.60;;;;;;5056569;28;20090;-27
2022/02/16 01:46:17;;;;;;;0.60;0.60;;;15.60;64.60;;;;;;5068281;28;20140;-26
2022/02/16 01:48:43;;;;;;;0.30;0.30;;;15.60;64.60;;;;;;5056241;28;20140;-27
2022/02/16 01:51:09;;;;;;;0.60;0.60;;;15.60;64.60;;;;;;5059349;28;20136;-27
2022/02/16 01:53:34;;;;;;;0.47;0.47;;;15.60;64.60;;;;;;5065086;28;20395;-26
2022/02/16 01:56:00;;;;;;;0.50;0.50;;;15.60;64.60;;;;;;5067745;28;20736;-27
2022/02/16 01:58:26;;;;;;;0.40;0.40;;;15.60;64.60;;;;;;5060076;28;20413;-27
2022/02/16 02:00:52;;;;;;;0.50;0.50;;;15.60;64.70;;;;;;5057837;28;20059;-27
2022/02/16 02:03:17;;;;;;;0.43;0.43;;;15.60;64.60;;;;;;5066018;28;20108;-26
2022/02/16 02:05:44;;;;;;;0.50;0.50;;;15.60;64.60;;;;;;5075112;28;20051;-27
2022/02/16 02:08:11;;;;;;;0.65;0.60;;;15.60;64.60;;;;;;5075615;28;20047;-27
2022/02/16 02:10:36;;;;;;;0.52;0.40;;;15.60;64.60;;;;;;5075948;28;20064;-26
2022/02/16 02:13:02;;;;;;;0.60;0.60;;;15.60;64.60;;;;;;5057376;28;20041;-27
2022/02/16 02:15:27;;;;;;;0.50;0.50;;;15.60;64.60;;;;;;5056505;28;20136;-26
2022/02/16 02:17:53;;;;;;;0.40;0.40;;;15.60;64.60;;;;;;5062538;28;20041;-27
2022/02/16 02:20:22;;;;;;;0.50;0.50;;;15.60;64.60;;;;;;5056221;28;20717;-27
2022/02/16 02:22:48;;;;;;;0.93;0.47;;;15.60;64.60;;;;;;5055788;28;20045;-26
2022/02/16 02:25:14;;;;;;;0.50;0.50;;;15.60;64.60;;;;;;5059206;28;20048;-26
2022/02/16 02:27:40;;;;;;;0.50;0.50;;;15.60;64.60;;;;;;5063736;28;20164;-26
2022/02/16 02:30:06;;;;;;;0.40;0.40;;;15.60;64.70;;;;;;5056247;28;20076;-27
2022/02/16 02:32:32;;;;;;;0.40;0.40;;;15.60;65.40;;;;;;5073406;28;20453;-26
2022/02/16 02:34:57;;;;;;;0.50;0.38;;;15.60;64.60;;;;;;5075754;28;20102;-26
2022/02/16 02:37:23;;;;;;;0.40;0.40;;;15.60;64.50;;;;;;5075954;28;20041;-26
2022/02/16 02:39:48;;;;;;;0.40;0.40;;;15.60;64.50;;;;;;5055905;28;20056;-26
2022/02/16 02:42:14;;;;;;;0.40;0.40;;;15.60;64.60;;;;;;5056106;28;20037;-26
2022/02/16 02:44:39;;;;;;;0.50;0.50;;;15.60;64.60;;;;;;5055363;28;20037;-27
2022/02/16 02:47:05;;;;;;;0.43;0.40;;;15.60;64.60;;;;;;5055663;28;20048;-26
2022/02/16 02:49:31;;;;;;;0.40;0.40;;;15.60;64.50;;;;;;5055754;28;20041;-26
2022/02/16 02:51:56;;;;;;;0.50;0.43;;;15.60;64.60;;;;;;5057390;28;20052;-27
2022/02/16 02:54:22;;;;;;;0.30;0.30;;;15.60;64.50;;;;;;5059217;28;20045;-26
2022/02/16 02:56:47;;;;;;;0.32;0.32;;;15.60;64.30;;;;;;5055109;28;20577;-26
2022/02/16 02:59:13;;;;;;;0.60;0.60;;;15.60;64.50;;;;;;5072656;28;20049;-27
2022/02/16 03:01:40;;;;;;;0.40;0.40;;;15.60;64.60;;;;;;5075081;28;20040;-26
2022/02/16 03:04:06;;;;;;;0.45;0.45;;;15.60;64.60;;;;;;5075445;28;20048;-27
2022/02/16 03:06:32;;;;;;;0.30;0.30;;;15.60;64.50;;;;;;5063141;28;20049;-24
2022/02/16 03:08:57;;;;;;;0.50;0.50;;;15.60;64.50;;;;;;5065288;28;20049;-26
2022/02/16 03:11:23;;;;;;;0.30;0.30;;;15.60;64.40;;;;;;5075570;28;20501;-27
2022/02/16 03:13:49;;;;;;;0.63;0.63;;;15.60;64.50;;;;;;5061827;28;20049;-26
2022/02/16 03:16:14;;;;;;;0.40;0.40;;;15.60;64.60;;;;;;5062064;28;20401;-26
2022/02/16 03:18:40;;;;;;;0.50;0.50;;;15.60;64.60;;;;;;5062584;28;20148;-26
2022/02/16 03:21:06;;;;;;;0.40;0.40;;;15.50;64.60;;;;;;5072062;28;20039;-26
2022/02/16 03:23:31;;;;;;;0.30;0.30;;;15.60;64.60;;;;;;5075220;28;20041;-27
2022/02/16 03:25:57;;;;;;;0.30;0.30;;;15.60;64.50;;;;;;5059393;28;20440;-26
2022/02/16 03:28:23;;;;;;;0.40;0.40;;;15.60;64.70;;;;;;5055353;28;20098;-26
2022/02/16 03:30:48;;;;;;;0.65;0.32;;;15.50;64.70;;;;;;5054586;28;20060;-26
2022/02/16 03:33:14;;;;;;;0.40;0.40;;;15.50;64.70;;;;;;5054544;28;20037;-26
2022/02/16 03:35:39;;;;;;;0.40;0.40;;;15.50;65.40;;;;;;5054819;28;20420;-27
2022/02/16 03:38:05;;;;;;;0.40;0.40;;;15.60;64.60;;;;;;5055100;28;20075;-27
2022/02/16 03:40:31;;;;;;;0.50;0.50;;;15.50;64.70;;;;;;5055219;28;20106;-26
2022/02/16 03:42:57;;;;;;;0.30;0.30;;;15.50;64.70;;;;;;5054674;28;20045;-27
2022/02/16 03:45:24;;;;;;;0.22;0.22;;;15.50;64.60;;;;;;5055223;28;20067;-27
2022/02/16 03:47:51;;;;;;;0.20;0.20;;;15.50;64.60;;;;;;5054529;28;20052;-27
2022/02/16 03:50:17;;;;;;;0.20;0.20;;;15.50;64.70;;;;;;5054982;28;20051;-27
2022/02/16 03:52:43;;;;;;;0.47;0.47;;;15.50;64.70;;;;;;5062534;28;20586;-27
2022/02/16 03:55:09;;;;;;;0.40;0.20;;;15.50;64.80;;;;;;5071488;28;20509;-26
2022/02/16 03:57:34;;;;;;;0.20;0.20;;;15.60;64.70;;;;;;5063927;28;20059;-27
2022/02/16 04:00:00;;;;;;;0.40;0.40;;;15.50;64.70;;;;;;5054533;28;20045;-27
2022/02/16 04:02:25;;;;;;;0.40;0.40;;;15.50;64.70;;;;;;5055092;28;20045;-26
2022/02/16 04:04:51;;;;;;;0.55;0.47;;;15.50;64.80;;;;;;5054364;28;20045;-27
2022/02/16 04:07:17;;;;;;;0.32;0.32;;;15.50;64.80;;;;;;5054993;28;20098;-27
2022/02/16 04:09:42;;;;;;;0.22;0.22;;;15.50;64.70;;;;;;5070496;28;20132;-27
2022/02/16 04:12:08;;;;;;;0.43;0.30;;;15.50;64.70;;;;;;5067885;28;20413;-27
2022/02/16 04:14:34;;;;;;;0.50;0.50;;;15.50;64.60;;;;;;5054994;28;20037;-26
2022/02/16 04:17:00;;;;;;;0.43;0.43;;;15.50;64.70;;;;;;5066930;28;20051;-26
2022/02/16 04:19:25;;;;;;;0.30;0.30;;;15.50;64.70;;;;;;5065161;28;20048;-26
2022/02/16 04:21:51;;;;;;;0.20;0.20;;;15.50;64.60;;;;;;5057592;28;20456;-26
2022/02/16 04:24:16;;;;;;;0.38;0.38;;;15.50;64.70;;;;;;5066700;28;20041;-27
2022/02/16 04:26:42;;;;;;;0.30;0.30;;;15.50;64.70;;;;;;5067357;28;20474;-26
2022/02/16 04:29:08;;;;;;;0.38;0.38;;;15.50;64.80;;;;;;5054900;28;20044;-27
2022/02/16 04:31:33;;;;;;;0.43;0.38;;;15.50;64.80;;;;;;5054668;28;20106;-26
2022/02/16 04:33:59;;;;;;;0.47;0.47;;;15.50;64.80;;;;;;5055960;28;20044;-27
2022/02/16 04:36:28;;;;;;;0.60;0.60;;;15.50;64.80;;;;;;5060081;28;20037;-26
2022/02/16 04:38:57;;;;;;;0.50;0.50;;;15.50;64.80;;;;;;5054024;28;20501;-26
2022/02/16 04:41:23;;;;;;;0.40;0.40;;;15.50;65.00;;;;;;5054750;28;20052;-27
2022/02/16 04:43:48;;;;;;;0.43;0.43;;;15.50;65.00;;;;;;5053882;28;20045;-26
2022/02/16 04:46:14;;;;;;;0.40;0.40;;;15.50;65.10;;;;;;5057550;28;20139;-26
2022/02/16 04:48:40;;;;;;;0.50;0.50;;;15.50;65.10;;;;;;5057418;28;20045;-26
2022/02/16 04:51:06;;;;;;;0.47;0.47;;;15.50;65.00;;;;;;5058106;28;20099;-27
2022/02/16 04:53:34;;;;;;;0.70;0.70;;;15.50;64.80;;;;;;5074437;28;20045;-26
2022/02/16 04:56:01;;;;;;;0.50;0.50;;;15.50;65.00;;;;;;5077374;28;20055;-27
2022/02/16 04:58:26;;;;;;;0.70;0.70;;;15.50;65.00;;;;;;5069639;28;20052;-26
2022/02/16 05:00:52;;;;;;;0.75;0.75;;;15.50;65.00;;;;;;5057352;28;20045;-26
2022/02/16 05:03:17;;;;;;;0.60;0.60;;;15.50;65.00;;;;;;5057782;28;20041;-26
2022/02/16 05:05:43;;;;;;;0.68;0.68;;;15.50;65.10;;;;;;5056977;28;20528;-27
2022/02/16 05:08:09;;;;;;;0.50;0.50;;;15.50;65.10;;;;;;5060815;28;20044;-26
2022/02/16 05:10:34;;;;;;;0.68;0.68;;;15.50;65.10;;;;;;5077681;28;20051;-27
2022/02/16 05:13:00;;;;;;;0.77;0.77;;;15.50;65.10;;;;;;5070558;28;20111;-26
2022/02/16 05:15:25;;;;;;;1.02;0.77;;;15.50;65.20;;;;;;5064577;28;20056;-26
2022/02/16 05:17:51;;;;;;;0.68;0.68;;;15.50;65.10;;;;;;5056849;28;20057;-27
2022/02/16 05:20:17;;;;;;;0.60;0.60;;;15.50;65.20;;;;;;5056041;28;20128;-26
2022/02/16 05:22:42;;;;;;;0.73;0.73;;;15.50;65.10;;;;;;5066532;28;20052;-26
2022/02/16 05:25:08;;;;;;;0.82;0.82;;;15.50;65.30;;;;;;5057949;28;20049;-26
2022/02/16 05:27:34;;;;;;;0.90;0.90;;;15.50;65.20;;;;;;5057520;28;20524;-26
2022/02/16 05:29:59;;;;;;;0.70;0.70;;;15.50;65.40;;;;;;5056656;28;20108;-27
2022/02/16 05:32:25;;;;;;;0.80;0.80;;;15.50;65.40;;;;;;5067500;28;20037;-27
2022/02/16 05:34:51;;;;;;;0.80;0.80;;;15.50;65.50;;;;;;5064460;28;20051;-26
2022/02/16 05:37:16;;;;;;;0.60;0.60;;;15.50;65.40;;;;;;5057163;28;20061;-26
2022/02/16 05:39:42;;;;;;;0.80;0.80;;;15.50;65.30;;;;;;5056644;28;20047;-26
2022/02/16 05:42:08;;;;;;;0.77;0.77;;;15.50;65.40;;;;;;5057299;28;20045;-27
2022/02/16 05:44:34;;;;;;;0.77;0.77;;;15.50;65.30;;;;;;5057221;28;20460;-26
2022/02/16 05:47:00;;;;;;;0.70;0.70;;;15.50;65.50;;;;;;5056237;28;20053;-26
2022/02/16 05:49:25;;;;;;;0.70;0.70;;;15.50;65.40;;;;;;5056925;28;20477;-26
2022/02/16 05:51:51;;;;;;;0.80;0.80;;;15.50;65.40;;;;;;5056218;28;20773;-26
2022/02/16 05:54:16;;;;;;;0.80;0.80;;;15.50;65.50;;;;;;5056963;28;20069;-26
2022/02/16 05:56:42;;;;;;;0.70;0.60;;;15.50;65.40;;;;;;5056504;28;20037;-27
2022/02/16 05:59:11;;;;;;;1.67;0.80;;;15.50;65.40;;;;;;5062305;28;20052;-27
2022/02/16 06:01:37;;;;;;;0.70;0.70;;;15.50;65.50;;;;;;5067584;28;20040;-27
2022/02/16 06:04:03;;;;;;;0.75;0.75;;;15.50;65.70;;;;;;5074436;28;20049;-27
2022/02/16 06:06:28;;;;;;;0.70;0.70;;;15.50;66.40;;;;;;5076702;28;20131;-26
2022/02/16 06:08:54;;;;;;;0.75;0.75;;;15.50;65.70;;;;;;5064743;28;20183;-26
2022/02/16 06:11:20;;;;;;;2.05;0.90;;;15.40;65.70;;;;;;5061703;28;20045;-27
2022/02/16 06:13:46;;;;;;;0.60;0.60;;;15.40;65.80;;;;;;5060355;28;20055;-26
2022/02/16 06:16:11;;;;;;;0.60;0.60;;;15.50;65.60;;;;;;5072729;28;20447;-27
2022/02/16 06:18:37;;;;;;;0.70;0.70;;;15.50;65.60;;;;;;5066365;28;20486;-27
2022/02/16 06:21:02;;;;;;;0.60;0.60;;;15.50;65.80;;;;;;5055917;28;20048;-27
2022/02/16 06:23:28;;;;;;;0.65;0.65;;;15.40;65.80;;;;;;5072876;28;20536;-26
2022/02/16 06:25:54;;;;;;;0.60;0.60;;;15.50;65.70;;;;;;5056776;28;20056;-26
2022/02/16 06:28:20;;;;;;;0.60;0.60;;;15.40;65.80;;;;;;5056361;28;20059;-27
2022/02/16 06:30:45;;;;;;;0.70;0.70;;;15.50;66.00;;;;;;5055778;28;20107;-26
2022/02/16 06:33:11;;;;;;;0.52;0.52;;;15.50;65.90;;;;;;5055955;28;20044;-26
2022/02/16 06:35:37;;;;;;;0.63;0.63;;;15.50;65.70;;;;;;5056217;28;20033;-26
2022/02/16 06:38:04;;;;;;;0.70;0.70;;;15.50;65.70;;;;;;5055179;28;20049;-26
2022/02/16 06:40:29;;;;;;;0.63;0.63;;;15.50;65.60;;;;;;5065370;28;20041;-27
2022/02/16 06:42:55;;;;;;;0.40;0.40;;;15.50;65.70;;;;;;5067617;28;20106;-28
2022/02/16 06:45:21;;;;;;;0.50;0.50;;;15.50;65.60;;;;;;5067536;28;20037;-26
2022/02/16 06:47:46;;;;;;;0.30;0.30;;;15.50;65.60;;;;;;5068616;28;20500;-25
2022/02/16 06:50:12;;;;;;;0.70;0.70;;;15.50;65.50;;;;;;5062987;28;20116;-27
2022/02/16 06:52:38;;;;;;;0.40;0.40;;;15.50;65.70;;;;;;5063904;28;20248;-26
2022/02/16 06:55:04;;;;;;;0.52;0.52;;;15.50;65.70;;;;;;5062621;28;20100;-27
2022/02/16 06:57:30;;;;;;;0.50;0.50;;;15.50;65.70;;;;;;5067549;28;20079;-27
2022/02/16 06:59:55;;;;;;;0.40;0.40;;;15.50;65.90;;;;;;5061870;28;20040;-26
2022/02/16 07:02:21;;;;;;;0.63;0.63;;;15.50;65.90;;;;;;5065445;28;20049;-26
2022/02/16 07:04:47;;;;;;;0.50;0.50;;;15.50;65.90;;;;;;5061648;28;20040;-27
2022/02/16 07:07:13;;;;;;;0.40;0.40;;;15.50;65.90;;;;;;5063547;28;20060;-27
2022/02/16 07:09:38;;;;;;;0.50;0.50;;;15.50;65.80;;;;;;5063636;28;20037;-26
2022/02/16 07:12:04;;;;;;;0.60;0.60;;;15.50;65.80;;;;;;5062662;28;20068;-26
2022/02/16 07:14:30;;;;;;;0.45;0.45;;;15.50;65.90;;;;;;5063432;28;20056;-28
2022/02/16 07:16:57;;;;;;;0.47;0.47;;;15.50;65.90;;;;;;5063511;28;20037;-26
2022/02/16 07:19:25;;;;;;;0.70;0.70;;;15.50;65.60;;;;;;5061833;28;20053;-26
2022/02/16 07:21:52;;;;;;;0.40;0.40;;;15.50;65.60;;;;;;5062427;28;20041;-24
2022/02/16 07:24:18;;;;;;;0.50;0.50;;;15.50;65.70;;;;;;5063988;28;20512;-27
2022/02/16 07:26:43;;;;;;;0.60;0.60;;;15.50;65.70;;;;;;5062789;28;20603;-26
2022/02/16 07:29:09;;;;;;;0.38;0.38;;;15.50;65.70;;;;;;5066887;28;20036;-26
2022/02/16 07:31:34;;;;;;;0.68;0.40;;;15.50;65.80;;;;;;5063820;28;20041;-26
2022/02/16 07:34:00;;;;;;;0.40;0.40;;;15.50;65.80;;;;;;5062680;28;20075;-26
2022/02/16 07:36:25;;;;;;;0.40;0.40;;;15.50;66.00;;;;;;5065655;28;20064;-26
2022/02/16 07:38:51;;;;;;;0.50;0.50;;;15.50;66.00;;;;;;5064056;28;20052;-26
2022/02/16 07:41:17;;;;;;;0.47;0.47;;;15.50;65.90;;;;;;5073434;28;20049;-26
2022/02/16 07:43:43;;;;;;;0.38;0.38;;;15.50;66.00;;;;;;5055211;28;20044;-26
2022/02/16 07:46:09;;;;;;;0.40;0.40;;;15.50;65.90;;;;;;5054416;28;20047;-26
2022/02/16 07:48:34;;;;;;;0.77;0.70;;;15.50;65.90;;;;;;5054952;28;20048;-26
2022/02/16 07:51:00;;;;;;;1.55;0.47;;;15.50;66.00;;;;;;5058128;28;20048;-26
2022/02/16 07:53:26;;;;;;;0.43;0.43;;;15.40;66.00;;;;;;5054746;28;20110;-26
2022/02/16 07:55:51;;;;;;;0.50;0.50;;;15.40;66.00;;;;;;5061772;28;20424;-26
2022/02/16 07:58:17;;;;;;;2.40;0.43;;;15.40;66.00;;;;;;5074522;28;20036;-27
2022/02/16 08:00:43;;;;;;;0.73;0.57;;;15.40;66.00;;;;;;5075037;28;20044;-26
2022/02/16 08:03:08;;;;;;;0.50;0.50;;;15.50;65.90;;;;;;5069608;28;20206;-26
2022/02/16 08:05:34;;;;;;;2.10;0.50;;;15.40;65.80;;;;;;5065661;28;20080;-26
2022/02/16 08:08:00;;;;;;;0.40;0.30;;;15.40;65.90;;;;;;5065612;28;20129;-26
2022/02/16 08:10:26;;;;;;;0.40;0.40;;;15.50;65.90;;;;;;5060744;28;20515;-26
2022/02/16 08:12:55;;;;;;;0.70;0.43;;;15.40;66.10;;;;;;5063923;28;20048;-26
2022/02/16 08:15:22;;;;;;;0.30;0.30;;;15.40;66.00;;;;;;5065457;28;20055;-26
2022/02/16 08:17:47;;;;;;;0.50;0.50;;;15.40;65.90;;;;;;5068268;28;20080;-26
2022/02/16 08:20:13;;;;;;;0.30;0.30;;;15.40;66.00;;;;;;5062743;28;20048;-26
2022/02/16 08:22:38;;;;;;;0.30;0.30;;;15.50;66.60;;;;;;5068054;28;20040;-26
2022/02/16 08:25:05;;;;;;;0.32;0.32;;;15.50;65.70;;;;;;5057542;28;20124;-26
2022/02/16 08:27:30;;;;;;;0.30;0.30;;;15.40;65.80;;;;;;5065288;28;20374;-27
2022/02/16 08:29:56;;;;;;;0.70;0.52;;;15.40;65.90;;;;;;5062764;28;20041;-26
2022/02/16 08:32:22;;;;;;;0.60;0.60;;;15.40;66.00;;;;;;5071033;28;20063;-27
2022/02/16 08:34:48;;;;;;;0.57;0.20;;;15.50;65.90;;;;;;5058137;28;20508;-27
2022/02/16 08:37:13;;;;;;;0.40;0.38;;;15.50;65.90;;;;;;5057794;28;20041;-26
2022/02/16 08:39:39;;;;;;;1.13;0.38;;;15.50;65.70;;;;;;5058326;28;20159;-26
2022/02/16 08:42:04;;;;;;;0.25;0.20;;;15.50;65.70;;;;;;5057818;28;20045;-26
2022/02/16 08:44:30;;;;;;;1.42;0.10;;;15.40;66.00;;;;;;5058180;28;20052;-26
2022/02/16 08:46:56;;;;;;;0.88;0.60;;;15.30;66.10;;;;;;5071169;28;20036;-27
2022/02/16 08:49:21;;;;;;;0.30;0.30;;;15.40;65.80;;;;;;5063483;28;20063;-26
2022/02/16 08:51:47;;;;;;;0.20;0.20;;;15.40;66.00;;;;;;5073333;28;20041;-26
2022/02/16 08:54:13;;;;;;;0.35;0.35;;;15.40;66.00;;;;;;5076945;28;20045;-26
2022/02/16 08:56:38;;;;;;;0.25;0.20;;;15.40;66.00;;;;;;5060887;28;20049;-26
2022/02/16 08:59:04;;;;;;;2.22;0.60;;;15.50;65.80;;;;;;5057445;28;20037;-26
2022/02/16 09:01:31;;;;;;;0.25;0.25;;;15.40;66.00;;;;;;5057503;28;20211;-26
2022/02/16 09:04:00;;;;;;;1.23;0.52;;;15.40;66.00;;;;;;5060065;28;20086;-26
2022/02/16 09:06:26;;;;;;;0.17;0.17;;;15.40;66.10;;;;;;5070098;28;20067;-26
2022/02/16 09:08:52;;;;;;;0.40;0.40;;;15.40;66.10;;;;;;5066739;28;20044;-26
2022/02/16 09:11:18;;;;;;;0.20;0.20;;;15.40;66.00;;;;;;5068377;28;20135;-26
2022/02/16 09:13:44;;;;;;;0.50;0.20;;;15.50;65.90;;;;;;5062063;28;20040;-26
2022/02/16 09:16:09;;;;;;;0.25;0.20;;;15.50;65.90;;;;;;5077063;28;20048;-26
2022/02/16 09:18:35;;;;;;;0.20;0.20;;;15.50;65.80;;;;;;5077104;28;20062;-26
2022/02/16 09:21:05;;;;;;;0.20;0.20;;;15.50;65.80;;;;;;5062262;28;20075;-26
2022/02/16 09:23:32;;;;;;;0.30;0.30;;;15.50;65.80;;;;;;5057304;28;20066;-26
2022/02/16 09:25:58;;;;;;;0.40;0.40;;;15.50;65.80;;;;;;5057098;28;20041;-27
2022/02/16 09:28:23;;;;;;;0.20;0.20;;;15.50;65.90;;;;;;5056325;28;20060;-26
2022/02/16 09:30:49;;;;;;;0.38;0.35;;;15.50;65.80;;;;;;5056338;28;20041;-26
2022/02/16 09:33:15;;;;;;;0.45;0.30;;;15.50;65.90;;;;;;5069856;28;20052;-26
2022/02/16 09:35:40;;;;;;;0.40;0.30;;;15.50;65.90;;;;;;5065242;28;20148;-26
2022/02/16 09:38:06;;;;;;;0.50;0.20;;;15.50;65.80;;;;;;5070592;28;20131;-26
2022/02/16 09:40:31;;;;;;;0.65;0.45;;;15.50;65.90;;;;;;5077393;28;20043;-26
2022/02/16 09:43:01;;;;;;;0.20;0.20;;;15.50;65.90;;;;;;5072902;28;20489;-26
2022/02/16 09:45:29;;;;;;;1.40;0.22;;;15.50;65.90;;;;;;5074786;28;20048;-26
2022/02/16 09:47:55;;;;;;;0.35;0.30;;;15.50;65.90;;;;;;5057164;28;20397;-26
2022/02/16 09:50:20;;;;;;;0.73;0.38;;;15.50;65.90;;;;;;5062018;28;20152;-26
2022/02/16 09:52:46;;;;;;;0.25;0.22;;;15.50;65.90;;;;;;5064310;28;20076;-26
2022/02/16 09:55:11;;;;;;;0.25;0.20;;;15.50;65.70;;;;;;5061105;28;20040;-26
2022/02/16 09:57:37;;;;;;;0.50;0.30;;;15.50;65.70;;;;;;5069524;28;20131;-26
2022/02/16 10:00:05;;;;;;;0.40;0.22;;;15.50;65.70;;;;;;5066240;28;20029;-26
2022/02/16 10:02:40;;;;;;;0.20;0.20;;;15.50;65.80;;;;;;5066364;28;20498;-26
2022/02/16 10:05:07;;;;;;;1.38;0.30;;;15.50;65.70;;;;;;5062366;28;20037;-25
2022/02/16 10:07:34;;;;;;;0.15;0.15;;;15.50;65.80;;;;;;5064150;28;20045;-26
2022/02/16 10:10:19;;;;;;;0.10;0.10;;;15.50;65.90;;;;;;5059354;28;20045;-26
2022/02/16 10:12:48;;;;;;;4.95;0.30;;;15.50;65.90;;;;;;5066113;28;20032;-26
2022/02/16 10:15:37;;;;;;;0.30;0.20;;;15.50;65.80;;;;;;5065782;28;20041;-26
2022/02/16 10:18:13;;;;;;;0.65;0.20;;;15.60;65.80;;;;;;5053672;28;20782;-26
2022/02/16 10:20:38;;;;;;;0.40;0.20;;;15.60;65.80;;;;;;5064899;28;20489;-26
2022/02/16 10:23:04;;;;;;;0.95;0.30;;;15.50;65.80;;;;;;5063292;28;20424;-26
2022/02/16 10:25:32;;;;;;;0.13;0.13;;;15.60;65.80;;;;;;5065983;28;20405;-26
2022/02/16 10:28:09;;;;;;;0.30;0.20;;;15.50;65.80;;;;;;5064640;28;20464;-26
2022/02/16 10:30:36;;;;;;;0.20;0.20;;;15.50;65.80;;;;;;5072542;28;20113;-26
2022/02/16 10:33:44;;;;;;;0.20;0.20;;;15.50;65.80;;;;;;5075114;28;20062;-22
2022/02/16 10:36:13;;;;;;;0.52;0.30;;;15.50;65.80;;;;;;5058188;28;20049;-26
2022/02/16 10:39:01;;;;;;;0.77;0.20;;;15.50;66.00;;;;;;5055969;28;20070;-27
2022/02/16 10:41:39;;;;;;;0.55;0.20;;;15.50;66.10;;;;;;5062007;28;20246;-26
2022/02/16 10:44:14;;;;;;;0.10;0.10;;;15.50;66.00;;;;;;5062931;28;20412;-23
2022/02/16 10:46:39;;;;;;;0.20;0.20;;;15.50;66.20;;;;;;5063905;28;20106;-26
2022/02/16 10:49:16;;;;;;;0.20;0.17;;;15.50;66.10;;;;;;5060425;28;20041;-26
2022/02/16 10:51:45;;;;;;;0.25;0.25;;;15.50;66.10;;;;;;5069791;28;20488;-27
2022/02/16 10:54:14;;;;;;;1.85;0.20;;;15.50;66.10;;;;;;5072944;28;20149;-26
2022/02/16 10:56:41;;;;;;;0.20;0.20;;;15.50;66.00;;;;;;5075223;28;20075;-26
2022/02/16 10:59:07;;;;;;;0.20;0.10;;;15.50;65.90;;;;;;5064440;28;20136;-26
2022/02/16 11:01:33;;;;;;;0.63;0.20;;;15.50;66.10;;;;;;5062539;28;20159;-26
2022/02/16 11:03:59;;;;;;;0.20;0.20;;;15.50;66.10;;;;;;5063562;28;20059;-26
2022/02/16 11:06:25;;;;;;;0.20;0.20;;;15.50;65.90;;;;;;5067716;28;20044;-26
2022/02/16 11:08:50;;;;;;;1.60;0.20;;;15.50;65.90;;;;;;5061705;28;20052;-26
2022/02/16 11:11:16;;;;;;;0.20;0.20;;;15.50;65.90;;;;;;5068643;28;20040;-26
2022/02/16 11:13:42;;;;;;;0.20;0.15;;;15.50;66.00;;;;;;5063225;28;20055;-26
2022/02/16 11:16:08;;;;;;;0.52;0.20;;;15.50;66.10;;;;;;5062487;28;20122;-26
2022/02/16 11:18:45;;;;;;;0.30;0.30;;;15.50;66.20;;;;;;5060819;28;20052;-26
2022/02/16 11:21:15;;;;;;;0.63;0.30;;;15.50;66.30;;;;;;5061668;28;20101;-25
2022/02/16 11:23:53;;;;;;;0.75;0.30;;;15.50;66.20;;;;;;5058779;28;20060;-26
2022/02/16 11:26:28;;;;;;;4.15;0.45;;;15.50;66.20;;;;;;5059310;28;20053;-26
2022/02/16 11:28:53;;;;;;;0.10;0.10;;;15.50;66.20;;;;;;5065061;28;20063;-27
2022/02/16 11:31:29;;;;;;;0.10;0.10;;;15.50;67.30;;;;;;5061787;28;20049;-26
2022/02/16 11:34:27;;;;;;;0.17;0.10;;;15.50;66.30;;;;;;5062415;28;20037;-26
2022/02/16 11:36:54;;;;;;;0.47;0.10;;;15.50;66.30;;;;;;5068489;28;20595;-26
2022/02/16 11:39:42;;;;;;;0.28;0.10;;;15.50;66.30;;;;;;4710020;28;10000009;-27
2022/02/16 11:42:09;;;;;;;0.30;0.20;;;15.60;66.20;;;;;;5063339;28;20626;-26
2022/02/16 11:45:07;;;;;;;0.20;0.20;;;15.50;66.00;;;;;;5061523;28;20324;-26
2022/02/16 11:47:36;;;;;;;0.45;0.40;;;15.50;66.70;;;;;;5042548;28;20443;-26
2022/02/16 11:50:05;;;;;;;1.13;0.85;;;15.60;66.10;;;;;;5063999;28;20421;-26
2022/02/16 11:52:42;;;;;;;1.35;0.90;;;15.60;66.20;;;;;;5068554;28;20044;-26
2022/02/16 11:55:31;;;;;;;2.80;1.50;;;15.60;66.10;;;;;;5063564;28;20044;-25
2022/02/16 11:58:03;;;;;;;2.45;2.25;;;15.60;66.00;;;;;;5066107;28;20061;-26
2022/02/16 12:00:33;;;;;;;3.42;3.22;;;15.60;66.20;;;;;;5065408;28;20052;-26
2022/02/16 12:03:02;;;;;;;4.20;3.83;;;15.60;66.00;;;;;;5062038;28;20041;-27
2022/02/16 12:06:14;;;;;;;5.57;5.18;;;15.60;65.90;;;;;;5066223;28;20601;-27
2022/02/16 12:08:49;;;;;;;8.40;7.50;;;15.70;66.30;;;;;;5053248;28;20102;-26
2022/02/16 12:11:28;;;;;;;9.63;8.05;;;15.60;66.30;;;;;;5066234;28;20051;-26
2022/02/16 12:14:11;;;;;;;12.52;11.23;;;15.70;66.50;;;;;;5068155;28;20060;-26
2022/02/16 12:16:42;;;;;;;15.80;12.63;;;15.70;66.50;;;;;;5064076;28;20409;-26
2022/02/16 12:19:09;;;;;;;19.80;15.38;;;15.70;66.40;;;;;;5064224;28;20188;-21
2022/02/16 12:21:36;;;;;;;19.23;15.07;;;15.70;66.50;;;;;;5068142;28;20044;-27
2022/02/16 12:24:06;;;;;;;16.88;13.23;;;15.70;66.50;;;;;;5064993;28;20053;-26
2022/02/16 12:26:36;;;;;;;18.85;13.68;;;15.70;66.30;;;;;;5067870;28;20056;-26
2022/02/16 12:29:11;;;;;;;24.70;15.95;;;15.70;66.30;;;;;;5066823;28;20136;-26
2022/02/16 12:31:39;;;;;;;23.50;17.10;;;15.70;66.60;;;;;;5064241;28;20040;-26
2022/02/16 12:34:13;;;;;;;26.50;18.30;;;15.70;66.50;;;;;;5066952;28;20055;-26
2022/02/16 12:36:48;;;;;;;26.13;17.55;;;15.70;66.60;;;;;;5066254;28;20204;-26
2022/02/16 12:39:14;;;;;;;26.85;18.10;;;15.70;66.50;;;;;;5066616;28;20465;-26
2022/02/16 12:41:40;;;;;;;25.77;17.75;;;15.80;66.50;;;;;;5067415;28;20155;-26
2022/02/16 12:44:11;;;;;;;23.83;18.02;;;15.80;66.40;;;;;;5065780;28;20091;-26
2022/02/16 12:46:42;;;;;;;25.88;18.05;;;15.80;66.30;;;;;;5072677;28;20056;-26